Flight Track Log - Related Links

Times and Time Zones

All times are in EDT time to prevent confusion due to time zone crossing. See the AAY800 flight status page for this flight to view local times or setup timezone preferences in your user account.

Time Position Orientation Groundspeed Altitude Reporting Facility
EDT Latitude Longitude Course Direction KTS km/h feet Rate Location/Type
Sat 09:23:17 27.9000 -82.6833 180° South 169 312 1,000  Level Tampa TRACON
Sat 09:23:35 27.8833 -82.6833 180° South 164 304 1,600 2,051 Climbing Tampa TRACON
Sat 09:24:36 27.8167 -82.6833 180° South 231 428 3,700 2,250 Climbing Tampa TRACON
Sat 09:25:35 27.8000 -82.7500 254° West 254 470 6,100 1,787 Climbing Tampa TRACON
Sat 09:27:34 27.9433 -82.7611 356° North 308 570 9,000 1,475 Climbing Jacksonville Center
Sat 09:28:34 28.0225 -82.7233 23° Northeast 308 570 10,500 1,400 Climbing Jacksonville Center
Sat 09:29:34 28.1100 -82.6856 21° North 315 583 11,800 1,800 Climbing Jacksonville Center
Sat 09:30:34 28.2164 -82.6758 North 345 639 14,100 2,400 Climbing Jacksonville Center
Sat 09:31:34 28.3208 -82.6708 North 363 673 16,600 2,050 Climbing Jacksonville Center
Sat 09:32:34 28.4272 -82.6658 North 374 692 18,200 1,450 Climbing Jacksonville Center
Sat 09:33:34 28.5400 -82.6514 North 385 713 19,500 1,100 Climbing Jacksonville Center
Sat 09:34:34 28.6694 -82.6489 North 406 752 20,400 1,150 Climbing Jacksonville Center
Sat 09:35:34 28.7800 -82.6461 North 420 777 21,800 1,250 Climbing Jacksonville Center
Sat 09:36:34 28.9094 -82.6411 North 439 813 22,900 1,100 Climbing Jacksonville Center
Sat 09:37:34 29.0325 -82.6336 North 444 822 24,000 600 Climbing Jacksonville Center
Sat 09:38:34 29.1597 -82.6264 North 444 822 24,100 550 Climbing Jacksonville Center
Sat 09:39:34 29.2872 -82.6164 North 449 832 25,100 1,000 Climbing Jacksonville Center
Sat 09:40:34 29.4164 -82.6111 North 454 840 26,100 1,150 Climbing Jacksonville Center
Sat 09:41:34 29.5481 -82.6014 North 461 855 27,400 1,300 Climbing Jacksonville Center
Sat 09:42:34 29.6878 -82.5936 North 456 845 28,700 800 Climbing Jacksonville Center
Sat 09:43:34 29.8131 -82.5886 North 456 845 29,000 150 Climbing Jacksonville Center
Sat 09:44:34 29.9406 -82.5833 North 456 845 29,000  Level Jacksonville Center
Sat 09:45:34 30.0572 -82.5758 North 456 845 29,000  Level Jacksonville Center
Sat 09:46:34 30.1867 -82.5731 North 456 845 29,000  Level Jacksonville Center
Sat 09:47:34 30.3142 -82.5628 North 456 845 29,000  Level Jacksonville Center
Sat 09:48:34 30.4414 -82.5600 North 456 845 29,000  Level Jacksonville Center
Sat 09:49:34 30.5708 -82.5525 North 456 845 29,000  Level Jacksonville Center
Sat 09:50:34 30.7025 -82.5494 North 456 845 29,000  Level Jacksonville Center
Sat 09:51:34 30.8339 -82.5417 North 456 845 29,000  Level Jacksonville Center
Sat 09:52:34 30.9656 -82.5317 North 461 855 29,000 600 Level Jacksonville Center
Sat 09:53:34 31.1053 -82.5286 North 461 855 30,200 1,000 Climbing Jacksonville Center
Sat 09:54:34 31.2347 -82.5256 North 456 845 31,000 400 Climbing Jacksonville Center
Sat 09:55:34 31.3581 -82.5472 351° North 456 845 31,000  Level Jacksonville Center
Sat 09:56:34 31.4689 -82.5808 345° North 451 835 31,000  Level Jacksonville Center
Sat 09:57:34 31.5942 -82.6119 348° North 451 835 31,000  Level Jacksonville Center
Sat 09:58:34 31.7194 -82.6483 346° North 451 835 31,000 517 Level Jacksonville Center
Sat 10:01:03 32.0444 -82.7403 347° North 455 843 32,800 718 Climbing Atlanta Center
Sat 10:02:03 32.1722 -82.7800 345° North 455 843 33,500 600 Climbing Atlanta Center
Sat 10:03:03 32.2978 -82.8103 348° North 455 843 34,000 250 Climbing Atlanta Center
Sat 10:04:03 32.4192 -82.8528 344° North 450 834 34,000  Level Atlanta Center
Sat 10:05:03 32.5303 -82.8833 347° North 451 835 34,000  Level Atlanta Center
Sat 10:06:03 32.6578 -82.9186 347° North 456 845 34,000  Level Atlanta Center
Sat 10:07:03 32.7792 -82.9492 348° North 467 864 34,000  Level Atlanta Center
Sat 10:08:03 32.9194 -82.9994 343° North 474 877 34,000  Level Atlanta Center
Sat 10:09:04 33.0469 -83.0303 349° North 474 877 34,000  Level Atlanta Center
Sat 10:10:03 33.1853 -83.0783 344° North 466 863 34,000  Level Atlanta Center
Sat 10:11:03 33.3147 -83.1092 349° North 472 874 34,000  Level Atlanta Center
Sat 10:12:03 33.4403 -83.1525 344° North 472 874 34,000  Level Atlanta Center
Sat 10:13:03 33.5700 -83.1836 349° North 472 874 34,000  Level Atlanta Center
Sat 10:14:03 33.7017 -83.2272 345° North 477 884 34,000  Level Atlanta Center
Sat 10:15:03 33.8356 -83.2611 348° North 477 884 34,000  Level Atlanta Center
Sat 10:16:04 33.9506 -83.3000 344° North 477 884 34,000  Level Atlanta Center
Sat 10:17:03 34.0864 -83.3364 347° North 482 893 34,000  Level Atlanta Center
Sat 10:18:03 34.2183 -83.3781 345° North 487 901 34,000  Level Atlanta Center
Sat 10:19:03 34.3519 -83.4147 347° North 493 912 34,000  Level Atlanta Center
Sat 10:20:03 34.4858 -83.4592 345° North 486 900 34,000  Level Atlanta Center
Sat 10:21:03 34.6194 -83.4911 349° North 492 911 34,000  Level Atlanta Center
Sat 10:22:03 34.7594 -83.5178 351° North 498 922 34,000  Level Atlanta Center
Sat 10:23:03 34.9014 -83.5197 359° North 503 932 34,000  Level Atlanta Center
Sat 10:24:03 35.0433 -83.5339 355° North 503 932 34,000  Level Atlanta Center
Sat 10:25:03 35.2039 -83.5303 North 510 945 34,000  Level Atlanta Center
Sat 10:26:03 35.3458 -83.5422 356° North 510 945 34,000  Level Atlanta Center
Sat 10:27:03 35.4858 -83.5464 359° North 510 945 34,000  Level Atlanta Center
Sat 10:28:03 35.6297 -83.5558 357° North 510 945 34,000  Level Atlanta Center
Sat 10:29:03 35.7694 -83.5575 359° North 510 945 34,000  Level Atlanta Center
Sat 10:30:03 35.9114 -83.5694 356° North 510 945 34,000  Level Atlanta Center
Sat 10:31:03 36.0533 -83.5714 359° North 510 945 34,000  Level Atlanta Center
Sat 10:32:07 36.1894 -83.5783 358° North 504 933 34,000  Level Indianapolis Center
Sat 10:33:09 36.3300 -83.5797 360° North 504 933 34,000  Level Indianapolis Center
Sat 10:34:10 36.4686 -83.5900 357° North 504 933 34,000  Level Indianapolis Center
Sat 10:35:11 36.6208 -83.5911 360° North 504 933 34,000  Level Indianapolis Center
Sat 10:36:13 36.7600 -83.6022 356° North 502 930 34,000  Level Indianapolis Center
Sat 10:37:14 36.9017 -83.6039 359° North 502 930 34,000  Level Indianapolis Center
Sat 10:38:16 37.0431 -83.6039 360° North 502 930 34,000  Level Indianapolis Center
Sat 10:39:17 37.1853 -83.6075 359° North 503 932 34,000 -393 Level Indianapolis Center
Sat 10:40:18 37.3269 -83.6050 North 503 932 33,200 -488 Descending Indianapolis Center
Sat 10:41:20 37.4675 -83.6081 359° North 503 932 33,000 -98 Descending Indianapolis Center
Sat 10:42:21 37.6322 -83.6053 North 503 932 33,000  Level Indianapolis Center
Sat 10:43:23 37.7725 -83.6100 358° North 503 932 33,000  Level Indianapolis Center
Sat 10:44:24 37.9122 -83.6103 360° North 503 932 33,000  Level Indianapolis Center
Sat 10:45:25 38.0519 -83.6114 360° North 502 930 33,000  Level Indianapolis Center
Sat 10:46:27 38.1878 -83.6136 359° North 492 911 33,000  Level Indianapolis Center
Sat 10:47:28 38.3269 -83.6139 360° North 494 914 33,000  Level Indianapolis Center
Sat 10:48:30 38.4658 -83.6156 359° North 494 914 33,000  Level Indianapolis Center
Sat 10:49:31 38.6064 -83.6153 360° North 497 921 33,000  Level Indianapolis Center
Sat 10:50:32 38.7558 -83.6167 360° North 498 922 33,000  Level Indianapolis Center
Sat 10:51:34 38.8953 -83.6175 360° North 499 924 33,000  Level Indianapolis Center
Sat 10:52:35 39.0328 -83.6189 360° North 498 922 33,000 -738 Level Indianapolis Center
Sat 10:53:36 39.1700 -83.6178 360° North 495 917 31,500 -1,415 Descending Indianapolis Center
Sat 10:54:38 39.3069 -83.6264 357° North 494 914 30,100 -1,317 Descending Indianapolis Center
Sat 10:55:39 39.4425 -83.6186 North 492 911 28,800 -1,721 Descending Indianapolis Center
Sat 10:56:40 39.6014 -83.6269 358° North 477 884 26,600 -1,512 Descending Indianapolis Center
Sat 10:57:42 39.7328 -83.6214 North 474 877 25,700 -1,220 Descending Indianapolis Center
Sat 10:58:43 39.8589 -83.6281 358° North 448 830 24,100 -836 Descending Indianapolis Center
Sat 10:59:44 39.9847 -83.6242 North 444 822 24,000 -439 Descending Indianapolis Center
Sat 11:00:46 40.1081 -83.6269 359° North 443 821 23,200 -488 Descending Indianapolis Center
Sat 11:01:47 40.2289 -83.6256 North 440 814 23,000 -98 Descending Indianapolis Center
Sat 11:02:49 40.3419 -83.6286 359° North 413 764 23,000 -780 Level Indianapolis Center
Sat 11:03:50 40.4558 -83.6286 360° North 408 756 21,400 -1,721 Descending Indianapolis Center
Sat 11:04:51 40.5728 -83.6314 359° North 417 772 19,500 -1,902 Descending Indianapolis Center
Sat 11:05:53 40.6889 -83.6333 359° North 417 772 17,500 -1,902 Descending Indianapolis Center
Sat 11:06:54 40.8047 -83.6353 359° North 417 772 15,600 -1,902 Descending Indianapolis Center
Sat 11:07:56 40.9194 -83.6336 North 416 771 13,600 -1,805 Descending Indianapolis Center
Sat 11:08:57 41.0306 -83.6319 North 405 750 11,900 -1,475 Descending Indianapolis Center
Sat 11:09:58 41.1250 -83.7306 322° Northwest 366 678 10,600 -1,338 Descending Indianapolis Center
Sat 11:11:07 41.1931 -83.7989 323° Northwest 292 541 9,000 -1,292 Descending Cleveland Center
Sat 11:12:08 41.2544 -83.8631 322° Northwest 284 526 7,800 -1,415 Descending Cleveland Center
Sat 11:13:10 41.3122 -83.9181 324° Northwest 265 491 6,100 -1,659 Descending Cleveland Center
Sat 11:14:11 41.3678 -83.9608 330° Northwest 247 457 4,400 -1,230 Descending Cleveland Center
Sat 11:15:12 41.4164 -84.0011 328° Northwest 228 422 3,600 -787 Descending Cleveland Center
Sat 11:16:13 41.4747 -84.0242 344° North 217 402 2,800 -453 Descending Cleveland Center
Sat 11:18:04 41.5369 -83.9653 35° Northeast 132 245 2,300 -244 Descending Cleveland Center
Sat 11:19:05 41.5533 -83.9183 65° Northeast 141 261 2,100 -197 Descending Cleveland Center

Login

Don't have an account? Register now (free) for customized features, flight alerts, and more!